sensor_id;sensor_type;location;lat;lon;timestamp;P1;durP1;ratioP1;P2;durP2;ratioP2
45236;SDS011;30973;51.442;3.580;2023-01-05T00:02:05;35.60;;;7.70;;
45236;SDS011;30973;51.442;3.580;2023-01-05T00:04:32;47.40;;;7.95;;
45236;SDS011;30973;51.442;3.580;2023-01-05T00:06:58;41.55;;;8.10;;
45236;SDS011;30973;51.442;3.580;2023-01-05T00:09:25;46.97;;;8.18;;
45236;SDS011;30973;51.442;3.580;2023-01-05T00:11:52;45.83;;;8.23;;
45236;SDS011;30973;51.442;3.580;2023-01-05T00:14:38;36.95;;;7.72;;
45236;SDS011;30973;51.442;3.580;2023-01-05T00:20:15;42.88;;;7.22;;
45236;SDS011;30973;51.442;3.580;2023-01-05T00:23:00;39.38;;;8.70;;
45236;SDS011;30973;51.442;3.580;2023-01-05T00:25:28;45.67;;;8.50;;
45236;SDS011;30973;51.442;3.580;2023-01-05T00:27:56;46.38;;;9.10;;
45236;SDS011;30973;51.442;3.580;2023-01-05T00:30:30;44.97;;;9.32;;
45236;SDS011;30973;51.442;3.580;2023-01-05T00:32:57;39.33;;;7.28;;
45236;SDS011;30973;51.442;3.580;2023-01-05T00:35:24;41.67;;;8.57;;
45236;SDS011;30973;51.442;3.580;2023-01-05T00:37:51;41.67;;;8.07;;
45236;SDS011;30973;51.442;3.580;2023-01-05T00:40:19;41.85;;;8.57;;
45236;SDS011;30973;51.442;3.580;2023-01-05T00:42:46;43.13;;;7.82;;
45236;SDS011;30973;51.442;3.580;2023-01-05T00:45:14;30.27;;;7.35;;
45236;SDS011;30973;51.442;3.580;2023-01-05T00:47:41;47.63;;;8.70;;
45236;SDS011;30973;51.442;3.580;2023-01-05T00:50:09;32.03;;;7.03;;
45236;SDS011;30973;51.442;3.580;2023-01-05T00:52:36;43.40;;;7.40;;
45236;SDS011;30973;51.442;3.580;2023-01-05T00:55:03;36.58;;;6.65;;
45236;SDS011;30973;51.442;3.580;2023-01-05T00:57:30;50.53;;;10.73;;
45236;SDS011;30973;51.442;3.580;2023-01-05T00:59:57;36.28;;;7.63;;
45236;SDS011;30973;51.442;3.580;2023-01-05T01:02:24;34.35;;;8.52;;
45236;SDS011;30973;51.442;3.580;2023-01-05T01:04:50;35.58;;;7.95;;
45236;SDS011;30973;51.442;3.580;2023-01-05T01:07:17;37.47;;;7.68;;
45236;SDS011;30973;51.442;3.580;2023-01-05T01:09:44;40.40;;;7.35;;
45236;SDS011;30973;51.442;3.580;2023-01-05T01:12:10;31.38;;;7.72;;
45236;SDS011;30973;51.442;3.580;2023-01-05T01:14:38;34.85;;;6.60;;
45236;SDS011;30973;51.442;3.580;2023-01-05T01:17:05;40.00;;;9.98;;
45236;SDS011;30973;51.442;3.580;2023-01-05T01:19:32;38.72;;;8.15;;
45236;SDS011;30973;51.442;3.580;2023-01-05T01:21:59;43.25;;;7.60;;
45236;SDS011;30973;51.442;3.580;2023-01-05T01:24:27;35.92;;;8.35;;
45236;SDS011;30973;51.442;3.580;2023-01-05T01:26:54;37.65;;;7.95;;
45236;SDS011;30973;51.442;3.580;2023-01-05T01:29:21;51.30;;;8.55;;
45236;SDS011;30973;51.442;3.580;2023-01-05T01:31:50;39.70;;;8.50;;
45236;SDS011;30973;51.442;3.580;2023-01-05T01:34:17;33.63;;;7.13;;
45236;SDS011;30973;51.442;3.580;2023-01-05T01:36:43;43.42;;;8.30;;
45236;SDS011;30973;51.442;3.580;2023-01-05T01:39:12;38.22;;;8.32;;
45236;SDS011;30973;51.442;3.580;2023-01-05T01:41:42;37.90;;;8.60;;
45236;SDS011;30973;51.442;3.580;2023-01-05T01:46:55;29.52;;;7.15;;
45236;SDS011;30973;51.442;3.580;2023-01-05T01:49:22;38.55;;;7.53;;
45236;SDS011;30973;51.442;3.580;2023-01-05T01:51:49;34.63;;;8.00;;
45236;SDS011;30973;51.442;3.580;2023-01-05T01:54:15;40.72;;;7.68;;
45236;SDS011;30973;51.442;3.580;2023-01-05T01:56:53;38.50;;;7.72;;
45236;SDS011;30973;51.442;3.580;2023-01-05T01:59:21;42.50;;;7.85;;
45236;SDS011;30973;51.442;3.580;2023-01-05T02:01:51;47.78;;;8.65;;
45236;SDS011;30973;51.442;3.580;2023-01-05T02:04:19;44.90;;;8.45;;
45236;SDS011;30973;51.442;3.580;2023-01-05T02:06:49;45.97;;;7.50;;
45236;SDS011;30973;51.442;3.580;2023-01-05T02:09:16;35.53;;;7.07;;
45236;SDS011;30973;51.442;3.580;2023-01-05T02:14:16;35.97;;;6.45;;
45236;SDS011;30973;51.442;3.580;2023-01-05T02:22:38;32.25;;;7.25;;
45236;SDS011;30973;51.442;3.580;2023-01-05T02:35:40;38.25;;;7.63;;
45236;SDS011;30973;51.442;3.580;2023-01-05T02:38:13;43.17;;;8.10;;
45236;SDS011;30973;51.442;3.580;2023-01-05T02:40:48;38.33;;;7.15;;
45236;SDS011;30973;51.442;3.580;2023-01-05T02:43:17;42.33;;;7.18;;
45236;SDS011;30973;51.442;3.580;2023-01-05T02:45:46;36.28;;;6.15;;
45236;SDS011;30973;51.442;3.580;2023-01-05T02:48:14;31.70;;;8.02;;
45236;SDS011;30973;51.442;3.580;2023-01-05T02:53:21;38.53;;;6.03;;
45236;SDS011;30973;51.442;3.580;2023-01-05T02:58:18;34.72;;;7.10;;
45236;SDS011;30973;51.442;3.580;2023-01-05T03:00:51;42.70;;;8.88;;
45236;SDS011;30973;51.442;3.580;2023-01-05T03:08:48;33.33;;;7.63;;
45236;SDS011;30973;51.442;3.580;2023-01-05T03:11:17;48.13;;;8.02;;
45236;SDS011;30973;51.442;3.580;2023-01-05T03:14:08;39.03;;;6.80;;
45236;SDS011;30973;51.442;3.580;2023-01-05T03:16:38;36.45;;;7.72;;
45236;SDS011;30973;51.442;3.580;2023-01-05T03:19:10;40.22;;;7.65;;
45236;SDS011;30973;51.442;3.580;2023-01-05T03:21:56;32.53;;;7.18;;
45236;SDS011;30973;51.442;3.580;2023-01-05T03:24:44;40.63;;;7.97;;
45236;SDS011;30973;51.442;3.580;2023-01-05T03:27:34;29.65;;;6.97;;
45236;SDS011;30973;51.442;3.580;2023-01-05T03:30:22;35.88;;;7.88;;
45236;SDS011;30973;51.442;3.580;2023-01-05T03:33:14;35.03;;;7.95;;
45236;SDS011;30973;51.442;3.580;2023-01-05T03:36:03;38.22;;;7.22;;
45236;SDS011;30973;51.442;3.580;2023-01-05T03:38:37;39.85;;;7.50;;
45236;SDS011;30973;51.442;3.580;2023-01-05T03:41:05;37.72;;;6.93;;
45236;SDS011;30973;51.442;3.580;2023-01-05T03:43:37;35.00;;;7.03;;
45236;SDS011;30973;51.442;3.580;2023-01-05T03:46:24;32.97;;;8.82;;
45236;SDS011;30973;51.442;3.580;2023-01-05T03:48:52;41.97;;;8.77;;
45236;SDS011;30973;51.442;3.580;2023-01-05T03:51:19;45.58;;;8.75;;
45236;SDS011;30973;51.442;3.580;2023-01-05T03:53:46;38.13;;;8.50;;
45236;SDS011;30973;51.442;3.580;2023-01-05T03:56:13;40.78;;;7.88;;
45236;SDS011;30973;51.442;3.580;2023-01-05T03:58:40;33.35;;;7.88;;
45236;SDS011;30973;51.442;3.580;2023-01-05T04:01:06;35.50;;;9.25;;
45236;SDS011;30973;51.442;3.580;2023-01-05T04:03:34;40.47;;;7.55;;
45236;SDS011;30973;51.442;3.580;2023-01-05T04:06:04;37.45;;;8.02;;
45236;SDS011;30973;51.442;3.580;2023-01-05T04:08:33;43.75;;;7.30;;
45236;SDS011;30973;51.442;3.580;2023-01-05T04:11:09;33.63;;;7.53;;
45236;SDS011;30973;51.442;3.580;2023-01-05T04:13:36;40.33;;;8.38;;
45236;SDS011;30973;51.442;3.580;2023-01-05T04:16:03;34.60;;;7.22;;
45236;SDS011;30973;51.442;3.580;2023-01-05T04:18:31;38.30;;;7.47;;
45236;SDS011;30973;51.442;3.580;2023-01-05T04:20:57;42.78;;;9.30;;
45236;SDS011;30973;51.442;3.580;2023-01-05T04:23:24;35.13;;;8.02;;
45236;SDS011;30973;51.442;3.580;2023-01-05T04:25:53;46.13;;;9.52;;
45236;SDS011;30973;51.442;3.580;2023-01-05T04:28:21;39.45;;;7.50;;
45236;SDS011;30973;51.442;3.580;2023-01-05T04:30:49;37.88;;;7.55;;
45236;SDS011;30973;51.442;3.580;2023-01-05T04:33:16;41.40;;;7.13;;
45236;SDS011;30973;51.442;3.580;2023-01-05T04:35:43;44.90;;;8.43;;
45236;SDS011;30973;51.442;3.580;2023-01-05T04:38:10;38.95;;;8.80;;
45236;SDS011;30973;51.442;3.580;2023-01-05T04:40:37;46.08;;;9.35;;
45236;SDS011;30973;51.442;3.580;2023-01-05T04:43:05;44.38;;;10.05;;
45236;SDS011;30973;51.442;3.580;2023-01-05T04:45:32;48.88;;;8.60;;
45236;SDS011;30973;51.442;3.580;2023-01-05T04:47:59;44.10;;;9.13;;
45236;SDS011;30973;51.442;3.580;2023-01-05T04:50:26;37.17;;;8.48;;
45236;SDS011;30973;51.442;3.580;2023-01-05T04:52:54;44.67;;;8.88;;
45236;SDS011;30973;51.442;3.580;2023-01-05T04:55:21;44.17;;;10.15;;
45236;SDS011;30973;51.442;3.580;2023-01-05T04:57:49;41.53;;;8.07;;
45236;SDS011;30973;51.442;3.580;2023-01-05T05:00:18;41.05;;;8.18;;
45236;SDS011;30973;51.442;3.580;2023-01-05T05:02:48;49.53;;;9.10;;
45236;SDS011;30973;51.442;3.580;2023-01-05T05:05:21;35.92;;;7.60;;
45236;SDS011;30973;51.442;3.580;2023-01-05T05:07:51;40.95;;;7.93;;
45236;SDS011;30973;51.442;3.580;2023-01-05T05:10:17;42.20;;;8.60;;
45236;SDS011;30973;51.442;3.580;2023-01-05T05:12:46;41.08;;;7.93;;
45236;SDS011;30973;51.442;3.580;2023-01-05T05:15:13;40.70;;;8.02;;
45236;SDS011;30973;51.442;3.580;2023-01-05T05:17:44;40.75;;;8.57;;
45236;SDS011;30973;51.442;3.580;2023-01-05T05:20:13;48.95;;;9.98;;
45236;SDS011;30973;51.442;3.580;2023-01-05T05:22:43;39.42;;;7.90;;
45236;SDS011;30973;51.442;3.580;2023-01-05T05:25:13;42.97;;;8.27;;
45236;SDS011;30973;51.442;3.580;2023-01-05T05:27:42;45.83;;;7.43;;
45236;SDS011;30973;51.442;3.580;2023-01-05T05:30:09;45.97;;;9.68;;
45236;SDS011;30973;51.442;3.580;2023-01-05T05:32:36;42.55;;;8.10;;
45236;SDS011;30973;51.442;3.580;2023-01-05T05:35:09;41.97;;;7.97;;
45236;SDS011;30973;51.442;3.580;2023-01-05T05:37:36;44.63;;;8.07;;
45236;SDS011;30973;51.442;3.580;2023-01-05T05:40:03;39.05;;;8.50;;
45236;SDS011;30973;51.442;3.580;2023-01-05T05:42:29;40.80;;;7.75;;
45236;SDS011;30973;51.442;3.580;2023-01-05T05:44:56;51.80;;;8.73;;
45236;SDS011;30973;51.442;3.580;2023-01-05T05:47:23;43.53;;;7.93;;
45236;SDS011;30973;51.442;3.580;2023-01-05T05:49:49;43.08;;;7.43;;
45236;SDS011;30973;51.442;3.580;2023-01-05T05:52:16;35.80;;;7.72;;
45236;SDS011;30973;51.442;3.580;2023-01-05T05:54:43;43.63;;;8.18;;
45236;SDS011;30973;51.442;3.580;2023-01-05T05:57:10;34.28;;;8.32;;
45236;SDS011;30973;51.442;3.580;2023-01-05T05:59:37;46.83;;;8.50;;
45236;SDS011;30973;51.442;3.580;2023-01-05T06:02:04;41.05;;;7.57;;
45236;SDS011;30973;51.442;3.580;2023-01-05T06:04:30;46.45;;;10.23;;
45236;SDS011;30973;51.442;3.580;2023-01-05T06:06:57;32.47;;;6.28;;
45236;SDS011;30973;51.442;3.580;2023-01-05T06:09:24;36.25;;;9.13;;
45236;SDS011;30973;51.442;3.580;2023-01-05T06:11:51;41.92;;;8.10;;
45236;SDS011;30973;51.442;3.580;2023-01-05T06:14:17;42.13;;;8.32;;
45236;SDS011;30973;51.442;3.580;2023-01-05T06:16:44;45.55;;;8.27;;
45236;SDS011;30973;51.442;3.580;2023-01-05T06:19:11;41.58;;;8.27;;
45236;SDS011;30973;51.442;3.580;2023-01-05T06:21:38;36.83;;;8.35;;
45236;SDS011;30973;51.442;3.580;2023-01-05T06:24:05;42.13;;;8.30;;
45236;SDS011;30973;51.442;3.580;2023-01-05T06:26:31;36.50;;;8.65;;
45236;SDS011;30973;51.442;3.580;2023-01-05T06:28:58;38.63;;;8.35;;
45236;SDS011;30973;51.442;3.580;2023-01-05T06:31:25;52.08;;;8.48;;
45236;SDS011;30973;51.442;3.580;2023-01-05T06:33:52;42.72;;;7.07;;
45236;SDS011;30973;51.442;3.580;2023-01-05T06:36:19;43.20;;;8.85;;
45236;SDS011;30973;51.442;3.580;2023-01-05T06:39:04;40.35;;;8.40;;
45236;SDS011;30973;51.442;3.580;2023-01-05T06:41:30;43.45;;;7.88;;
45236;SDS011;30973;51.442;3.580;2023-01-05T06:43:57;37.03;;;8.93;;
45236;SDS011;30973;51.442;3.580;2023-01-05T06:46:24;39.92;;;7.40;;
45236;SDS011;30973;51.442;3.580;2023-01-05T06:48:50;35.65;;;7.45;;
45236;SDS011;30973;51.442;3.580;2023-01-05T06:51:17;35.10;;;6.32;;
45236;SDS011;30973;51.442;3.580;2023-01-05T06:53:44;32.10;;;7.25;;
45236;SDS011;30973;51.442;3.580;2023-01-05T06:56:11;41.20;;;7.47;;
45236;SDS011;30973;51.442;3.580;2023-01-05T06:58:38;35.60;;;6.70;;
45236;SDS011;30973;51.442;3.580;2023-01-05T07:01:04;42.38;;;7.78;;
45236;SDS011;30973;51.442;3.580;2023-01-05T07:03:31;42.10;;;7.18;;
45236;SDS011;30973;51.442;3.580;2023-01-05T07:05:58;38.58;;;8.05;;
45236;SDS011;30973;51.442;3.580;2023-01-05T07:08:25;35.90;;;7.35;;
45236;SDS011;30973;51.442;3.580;2023-01-05T07:10:51;30.77;;;6.28;;
45236;SDS011;30973;51.442;3.580;2023-01-05T07:13:18;35.22;;;6.72;;
45236;SDS011;30973;51.442;3.580;2023-01-05T07:15:46;42.25;;;6.85;;
45236;SDS011;30973;51.442;3.580;2023-01-05T07:18:13;41.47;;;7.03;;
45236;SDS011;30973;51.442;3.580;2023-01-05T07:20:40;37.05;;;6.30;;
45236;SDS011;30973;51.442;3.580;2023-01-05T07:23:06;37.58;;;6.78;;
45236;SDS011;30973;51.442;3.580;2023-01-05T07:25:33;39.63;;;7.60;;
45236;SDS011;30973;51.442;3.580;2023-01-05T07:27:59;32.63;;;7.35;;
45236;SDS011;30973;51.442;3.580;2023-01-05T07:30:26;37.40;;;7.88;;
45236;SDS011;30973;51.442;3.580;2023-01-05T07:32:56;44.25;;;8.23;;
45236;SDS011;30973;51.442;3.580;2023-01-05T07:35:23;34.63;;;6.45;;
45236;SDS011;30973;51.442;3.580;2023-01-05T07:37:49;46.08;;;8.20;;
45236;SDS011;30973;51.442;3.580;2023-01-05T07:40:16;40.05;;;6.82;;
45236;SDS011;30973;51.442;3.580;2023-01-05T07:42:48;42.85;;;8.10;;
45236;SDS011;30973;51.442;3.580;2023-01-05T07:45:15;41.00;;;7.28;;
45236;SDS011;30973;51.442;3.580;2023-01-05T07:47:42;43.35;;;8.55;;
45236;SDS011;30973;51.442;3.580;2023-01-05T07:50:09;37.28;;;8.70;;
45236;SDS011;30973;51.442;3.580;2023-01-05T07:52:35;39.65;;;8.13;;
45236;SDS011;30973;51.442;3.580;2023-01-05T07:55:02;41.38;;;8.10;;
45236;SDS011;30973;51.442;3.580;2023-01-05T07:57:29;37.08;;;7.22;;
45236;SDS011;30973;51.442;3.580;2023-01-05T07:59:55;32.55;;;7.28;;
45236;SDS011;30973;51.442;3.580;2023-01-05T08:02:22;39.10;;;8.15;;
45236;SDS011;30973;51.442;3.580;2023-01-05T08:04:49;40.35;;;6.97;;
45236;SDS011;30973;51.442;3.580;2023-01-05T08:07:16;37.13;;;7.28;;
45236;SDS011;30973;51.442;3.580;2023-01-05T08:09:42;38.25;;;7.47;;
45236;SDS011;30973;51.442;3.580;2023-01-05T08:12:28;38.42;;;7.30;;
45236;SDS011;30973;51.442;3.580;2023-01-05T08:14:56;46.15;;;8.18;;
45236;SDS011;30973;51.442;3.580;2023-01-05T08:17:23;35.38;;;8.13;;
45236;SDS011;30973;51.442;3.580;2023-01-05T08:19:49;33.83;;;7.60;;
45236;SDS011;30973;51.442;3.580;2023-01-05T08:22:16;41.55;;;8.25;;
45236;SDS011;30973;51.442;3.580;2023-01-05T08:24:43;36.75;;;7.35;;
45236;SDS011;30973;51.442;3.580;2023-01-05T08:27:10;38.30;;;7.53;;
45236;SDS011;30973;51.442;3.580;2023-01-05T08:29:36;46.63;;;11.52;;
45236;SDS011;30973;51.442;3.580;2023-01-05T08:32:03;54.53;;;8.98;;
45236;SDS011;30973;51.442;3.580;2023-01-05T08:34:30;42.13;;;7.05;;
45236;SDS011;30973;51.442;3.580;2023-01-05T08:37:00;54.20;;;9.23;;
45236;SDS011;30973;51.442;3.580;2023-01-05T08:39:27;51.72;;;8.45;;
45236;SDS011;30973;51.442;3.580;2023-01-05T08:41:53;39.90;;;9.35;;
45236;SDS011;30973;51.442;3.580;2023-01-05T08:44:27;53.70;;;9.47;;
45236;SDS011;30973;51.442;3.580;2023-01-05T08:46:54;50.40;;;9.68;;
45236;SDS011;30973;51.442;3.580;2023-01-05T08:49:22;54.25;;;10.07;;
45236;SDS011;30973;51.442;3.580;2023-01-05T08:51:49;43.80;;;8.40;;
45236;SDS011;30973;51.442;3.580;2023-01-05T08:54:16;41.58;;;7.13;;
45236;SDS011;30973;51.442;3.580;2023-01-05T08:56:42;57.03;;;11.00;;
45236;SDS011;30973;51.442;3.580;2023-01-05T08:59:12;35.83;;;7.15;;
45236;SDS011;30973;51.442;3.580;2023-01-05T09:01:39;39.95;;;8.65;;
45236;SDS011;30973;51.442;3.580;2023-01-05T09:04:06;40.65;;;7.75;;
45236;SDS011;30973;51.442;3.580;2023-01-05T09:06:33;38.85;;;8.80;;
45236;SDS011;30973;51.442;3.580;2023-01-05T09:09:00;43.08;;;10.15;;
45236;SDS011;30973;51.442;3.580;2023-01-05T09:11:27;39.75;;;7.75;;
45236;SDS011;30973;51.442;3.580;2023-01-05T09:13:54;51.05;;;10.60;;
45236;SDS011;30973;51.442;3.580;2023-01-05T09:16:22;55.58;;;8.55;;
45236;SDS011;30973;51.442;3.580;2023-01-05T09:19:09;43.40;;;7.68;;
45236;SDS011;30973;51.442;3.580;2023-01-05T09:21:36;46.20;;;7.78;;
45236;SDS011;30973;51.442;3.580;2023-01-05T09:24:05;46.22;;;7.50;;
45236;SDS011;30973;51.442;3.580;2023-01-05T09:26:37;41.78;;;9.32;;
45236;SDS011;30973;51.442;3.580;2023-01-05T09:29:04;35.42;;;6.80;;
45236;SDS011;30973;51.442;3.580;2023-01-05T09:31:31;36.47;;;7.78;;
45236;SDS011;30973;51.442;3.580;2023-01-05T09:34:00;40.25;;;6.93;;
45236;SDS011;30973;51.442;3.580;2023-01-05T09:36:27;44.58;;;9.10;;
45236;SDS011;30973;51.442;3.580;2023-01-05T09:38:54;40.13;;;7.60;;
45236;SDS011;30973;51.442;3.580;2023-01-05T09:44:05;47.08;;;8.65;;
45236;SDS011;30973;51.442;3.580;2023-01-05T09:49:00;38.53;;;9.57;;
45236;SDS011;30973;51.442;3.580;2023-01-05T09:51:27;38.72;;;7.10;;
45236;SDS011;30973;51.442;3.580;2023-01-05T09:53:55;37.92;;;7.30;;
45236;SDS011;30973;51.442;3.580;2023-01-05T09:56:37;41.58;;;8.65;;
45236;SDS011;30973;51.442;3.580;2023-01-05T10:01:51;37.95;;;7.75;;
45236;SDS011;30973;51.442;3.580;2023-01-05T10:04:21;38.05;;;8.32;;
45236;SDS011;30973;51.442;3.580;2023-01-05T10:06:57;36.42;;;8.20;;
45236;SDS011;30973;51.442;3.580;2023-01-05T10:09:27;40.03;;;7.63;;
45236;SDS011;30973;51.442;3.580;2023-01-05T10:11:55;45.70;;;8.23;;
45236;SDS011;30973;51.442;3.580;2023-01-05T10:14:42;35.92;;;8.07;;
45236;SDS011;30973;51.442;3.580;2023-01-05T10:17:12;39.25;;;9.32;;
45236;SDS011;30973;51.442;3.580;2023-01-05T10:19:59;41.15;;;9.15;;
45236;SDS011;30973;51.442;3.580;2023-01-05T10:25:22;48.42;;;8.60;;
45236;SDS011;30973;51.442;3.580;2023-01-05T10:30:23;41.22;;;8.77;;
45236;SDS011;30973;51.442;3.580;2023-01-05T10:38:48;44.83;;;8.10;;
45236;SDS011;30973;51.442;3.580;2023-01-05T10:46:18;36.97;;;7.47;;
45236;SDS011;30973;51.442;3.580;2023-01-05T10:49:06;45.40;;;7.80;;
45236;SDS011;30973;51.442;3.580;2023-01-05T10:51:34;43.30;;;8.80;;
45236;SDS011;30973;51.442;3.580;2023-01-05T10:54:02;45.70;;;7.93;;
45236;SDS011;30973;51.442;3.580;2023-01-05T10:56:28;37.95;;;7.20;;
45236;SDS011;30973;51.442;3.580;2023-01-05T10:59:07;37.60;;;8.68;;
45236;SDS011;30973;51.442;3.580;2023-01-05T11:01:34;41.00;;;7.45;;
45236;SDS011;30973;51.442;3.580;2023-01-05T11:04:03;40.80;;;7.15;;
45236;SDS011;30973;51.442;3.580;2023-01-05T11:06:51;40.10;;;7.70;;
45236;SDS011;30973;51.442;3.580;2023-01-05T11:09:18;38.33;;;6.75;;
45236;SDS011;30973;51.442;3.580;2023-01-05T11:11:54;44.17;;;7.53;;
45236;SDS011;30973;51.442;3.580;2023-01-05T11:14:21;35.35;;;6.88;;
45236;SDS011;30973;51.442;3.580;2023-01-05T11:16:49;43.38;;;8.98;;
45236;SDS011;30973;51.442;3.580;2023-01-05T11:19:17;36.65;;;6.90;;
45236;SDS011;30973;51.442;3.580;2023-01-05T11:21:44;45.83;;;6.70;;
45236;SDS011;30973;51.442;3.580;2023-01-05T11:26:54;42.47;;;7.38;;
45236;SDS011;30973;51.442;3.580;2023-01-05T11:29:21;38.30;;;7.07;;
45236;SDS011;30973;51.442;3.580;2023-01-05T11:36:57;32.67;;;6.90;;
45236;SDS011;30973;51.442;3.580;2023-01-05T11:39:34;36.25;;;6.85;;
45236;SDS011;30973;51.442;3.580;2023-01-05T11:42:08;31.02;;;7.35;;
45236;SDS011;30973;51.442;3.580;2023-01-05T11:44:35;33.60;;;5.95;;
45236;SDS011;30973;51.442;3.580;2023-01-05T11:47:03;31.27;;;6.38;;
45236;SDS011;30973;51.442;3.580;2023-01-05T11:49:30;31.20;;;6.43;;
45236;SDS011;30973;51.442;3.580;2023-01-05T11:51:57;32.13;;;6.05;;
45236;SDS011;30973;51.442;3.580;2023-01-05T11:54:31;38.20;;;7.15;;
45236;SDS011;30973;51.442;3.580;2023-01-05T11:57:05;30.10;;;5.80;;
45236;SDS011;30973;51.442;3.580;2023-01-05T11:59:32;36.70;;;6.47;;
45236;SDS011;30973;51.442;3.580;2023-01-05T12:04:42;27.38;;;6.15;;
45236;SDS011;30973;51.442;3.580;2023-01-05T12:07:19;31.58;;;6.75;;
45236;SDS011;30973;51.442;3.580;2023-01-05T12:22:52;31.77;;;6.82;;
45236;SDS011;30973;51.442;3.580;2023-01-05T12:25:24;35.80;;;7.05;;
45236;SDS011;30973;51.442;3.580;2023-01-05T12:28:09;40.28;;;7.53;;
45236;SDS011;30973;51.442;3.580;2023-01-05T12:31:13;29.55;;;7.00;;
45236;SDS011;30973;51.442;3.580;2023-01-05T12:44:56;26.58;;;5.32;;
45236;SDS011;30973;51.442;3.580;2023-01-05T12:49:59;25.35;;;5.78;;
45236;SDS011;30973;51.442;3.580;2023-01-05T12:52:37;27.70;;;6.30;;
45236;SDS011;30973;51.442;3.580;2023-01-05T12:55:16;26.70;;;5.80;;
45236;SDS011;30973;51.442;3.580;2023-01-05T12:57:45;37.78;;;6.15;;
45236;SDS011;30973;51.442;3.580;2023-01-05T13:00:15;33.03;;;6.80;;
45236;SDS011;30973;51.442;3.580;2023-01-05T13:02:46;26.55;;;6.70;;
45236;SDS011;30973;51.442;3.580;2023-01-05T13:05:33;22.25;;;5.65;;
45236;SDS011;30973;51.442;3.580;2023-01-05T13:13:25;23.75;;;5.45;;
45236;SDS011;30973;51.442;3.580;2023-01-05T13:16:03;30.33;;;5.57;;
45236;SDS011;30973;51.442;3.580;2023-01-05T13:18:31;21.60;;;5.15;;
45236;SDS011;30973;51.442;3.580;2023-01-05T13:21:01;25.98;;;5.75;;
45236;SDS011;30973;51.442;3.580;2023-01-05T13:23:39;22.55;;;5.95;;
45236;SDS011;30973;51.442;3.580;2023-01-05T13:26:13;24.73;;;6.00;;
45236;SDS011;30973;51.442;3.580;2023-01-05T13:28:40;25.30;;;6.28;;
45236;SDS011;30973;51.442;3.580;2023-01-05T13:42:01;21.77;;;5.72;;
45236;SDS011;30973;51.442;3.580;2023-01-05T13:51:59;14.93;;;5.57;;
45236;SDS011;30973;51.442;3.580;2023-01-05T13:57:27;11.80;;;4.00;;
45236;SDS011;30973;51.442;3.580;2023-01-05T13:59:56;10.70;;;4.25;;
45236;SDS011;30973;51.442;3.580;2023-01-05T14:02:40;11.23;;;4.57;;
45236;SDS011;30973;51.442;3.580;2023-01-05T14:07:51;11.20;;;3.65;;
45236;SDS011;30973;51.442;3.580;2023-01-05T14:10:21;9.15;;;4.07;;
45236;SDS011;30973;51.442;3.580;2023-01-05T14:12:49;11.02;;;4.18;;
45236;SDS011;30973;51.442;3.580;2023-01-05T14:15:28;11.40;;;3.92;;
45236;SDS011;30973;51.442;3.580;2023-01-05T14:17:57;11.27;;;4.10;;
45236;SDS011;30973;51.442;3.580;2023-01-05T14:20:44;12.00;;;4.57;;
45236;SDS011;30973;51.442;3.580;2023-01-05T14:25:52;15.77;;;4.82;;
45236;SDS011;30973;51.442;3.580;2023-01-05T14:36:24;12.57;;;5.47;;
45236;SDS011;30973;51.442;3.580;2023-01-05T14:38:51;11.95;;;4.60;;
45236;SDS011;30973;51.442;3.580;2023-01-05T14:41:20;7.13;;;3.42;;
45236;SDS011;30973;51.442;3.580;2023-01-05T14:44:03;9.88;;;3.53;;
45236;SDS011;30973;51.442;3.580;2023-01-05T14:46:46;8.65;;;3.90;;
45236;SDS011;30973;51.442;3.580;2023-01-05T14:49:18;10.10;;;3.00;;
45236;SDS011;30973;51.442;3.580;2023-01-05T14:51:55;10.10;;;2.55;;
45236;SDS011;30973;51.442;3.580;2023-01-05T14:59:55;9.80;;;2.22;;
45236;SDS011;30973;51.442;3.580;2023-01-05T15:02:26;8.73;;;2.10;;
45236;SDS011;30973;51.442;3.580;2023-01-05T15:04:57;5.78;;;2.10;;
45236;SDS011;30973;51.442;3.580;2023-01-05T15:10:16;7.93;;;2.10;;
45236;SDS011;30973;51.442;3.580;2023-01-05T15:34:09;9.52;;;3.28;;
45236;SDS011;30973;51.442;3.580;2023-01-05T15:36:38;12.35;;;2.67;;
45236;SDS011;30973;51.442;3.580;2023-01-05T15:42:13;12.57;;;3.45;;
45236;SDS011;30973;51.442;3.580;2023-01-05T15:44:42;8.30;;;3.05;;
45236;SDS011;30973;51.442;3.580;2023-01-05T15:47:11;11.60;;;3.05;;
45236;SDS011;30973;51.442;3.580;2023-01-05T15:49:38;10.38;;;3.60;;
45236;SDS011;30973;51.442;3.580;2023-01-05T15:52:08;9.52;;;3.47;;
45236;SDS011;30973;51.442;3.580;2023-01-05T15:54:42;8.52;;;3.10;;
45236;SDS011;30973;51.442;3.580;2023-01-05T15:57:18;7.88;;;2.70;;
45236;SDS011;30973;51.442;3.580;2023-01-05T15:59:46;6.00;;;2.60;;
45236;SDS011;30973;51.442;3.580;2023-01-05T16:02:27;5.93;;;2.60;;
45236;SDS011;30973;51.442;3.580;2023-01-05T16:10:22;6.85;;;2.53;;
45236;SDS011;30973;51.442;3.580;2023-01-05T16:12:50;5.85;;;1.95;;
45236;SDS011;30973;51.442;3.580;2023-01-05T16:15:20;7.57;;;2.25;;
45236;SDS011;30973;51.442;3.580;2023-01-05T16:17:47;7.90;;;2.15;;
45236;SDS011;30973;51.442;3.580;2023-01-05T16:20:20;9.35;;;2.58;;
45236;SDS011;30973;51.442;3.580;2023-01-05T16:22:56;7.90;;;2.53;;
45236;SDS011;30973;51.442;3.580;2023-01-05T16:28:00;8.45;;;3.05;;
45236;SDS011;30973;51.442;3.580;2023-01-05T16:30:35;5.95;;;2.65;;
45236;SDS011;30973;51.442;3.580;2023-01-05T16:35:42;6.20;;;2.97;;
45236;SDS011;30973;51.442;3.580;2023-01-05T16:43:15;5.05;;;2.85;;
45236;SDS011;30973;51.442;3.580;2023-01-05T16:45:44;6.40;;;2.83;;
45236;SDS011;30973;51.442;3.580;2023-01-05T16:48:27;8.57;;;3.08;;
45236;SDS011;30973;51.442;3.580;2023-01-05T16:50:57;7.15;;;3.22;;
45236;SDS011;30973;51.442;3.580;2023-01-05T16:53:27;9.00;;;3.58;;
45236;SDS011;30973;51.442;3.580;2023-01-05T16:55:54;8.20;;;3.30;;
45236;SDS011;30973;51.442;3.580;2023-01-05T17:03:40;8.10;;;2.83;;
45236;SDS011;30973;51.442;3.580;2023-01-05T17:08:58;9.02;;;2.67;;
45236;SDS011;30973;51.442;3.580;2023-01-05T17:11:26;8.93;;;3.10;;
45236;SDS011;30973;51.442;3.580;2023-01-05T17:13:55;10.15;;;3.10;;
45236;SDS011;30973;51.442;3.580;2023-01-05T17:16:22;11.00;;;2.85;;
45236;SDS011;30973;51.442;3.580;2023-01-05T17:18:49;13.43;;;2.75;;
45236;SDS011;30973;51.442;3.580;2023-01-05T17:21:17;15.57;;;3.25;;
45236;SDS011;30973;51.442;3.580;2023-01-05T17:23:46;15.05;;;2.78;;
45236;SDS011;30973;51.442;3.580;2023-01-05T17:26:18;11.45;;;3.15;;
45236;SDS011;30973;51.442;3.580;2023-01-05T17:28:46;14.13;;;3.00;;
45236;SDS011;30973;51.442;3.580;2023-01-05T17:31:13;16.92;;;2.97;;
45236;SDS011;30973;51.442;3.580;2023-01-05T17:33:39;14.45;;;2.75;;
45236;SDS011;30973;51.442;3.580;2023-01-05T17:36:06;17.42;;;7.68;;
45236;SDS011;30973;51.442;3.580;2023-01-05T17:38:33;14.70;;;3.38;;
45236;SDS011;30973;51.442;3.580;2023-01-05T17:40:59;10.30;;;3.45;;
45236;SDS011;30973;51.442;3.580;2023-01-05T17:43:27;14.80;;;3.40;;
45236;SDS011;30973;51.442;3.580;2023-01-05T17:45:53;11.18;;;3.20;;
45236;SDS011;30973;51.442;3.580;2023-01-05T17:48:21;8.23;;;2.67;;
45236;SDS011;30973;51.442;3.580;2023-01-05T17:50:47;11.70;;;3.28;;
45236;SDS011;30973;51.442;3.580;2023-01-05T17:53:19;12.25;;;3.13;;
45236;SDS011;30973;51.442;3.580;2023-01-05T17:55:46;13.68;;;3.33;;
45236;SDS011;30973;51.442;3.580;2023-01-05T17:58:13;8.77;;;2.65;;
45236;SDS011;30973;51.442;3.580;2023-01-05T18:00:40;11.88;;;3.03;;
45236;SDS011;30973;51.442;3.580;2023-01-05T18:03:11;9.07;;;2.80;;
45236;SDS011;30973;51.442;3.580;2023-01-05T18:05:41;15.55;;;3.58;;